Granada, CO (81041)

09:11 PM MDT del 25 Agosto 2016 (GMT -0600)
Amity | | Change Station

Alt. 3415 ft 38.05 °N, 102.21 °W | Updated 3 minutes ago

Clear
Sereno
64.0 °F
Sembra 64.0 °F
N
3.3
Vento Variabile Vento da Est
Gusts 5.4 mph

Oggi
Massima -- | Minima -- °F
--% Possibilità di precip.
Ieri
Massima -- | Minima -- °F
Precip. -- in
Pressione 30.07 in
Visibilità 10.0 miglia
Nuvole Sereno
Punto di rugiada 58 °F
Umidità 81%
Piovosità 0.00 in
Spessore del manto nevoso Non disponibile.
6:13 AM 7:28 PM
Ultimo quarto, 39% visible
METAR KLAA 260253Z AUTO 13006KT 10SM CLR 18/13 A3017 RMK AO2 SLP182 T01780133 53010 TSNO PNO
Pressione 30.07 in
Visibilità 10.0 miglia
Nuvole Sereno
Punto di rugiada 58 °F
Umidità 81%
Piovosità 0.00 in
Spessore del manto nevoso Non disponibile.
6:13 AM 7:28 PM
Ultimo quarto, 39% visible
METAR KLAA 260253Z AUTO 13006KT 10SM CLR 18/13 A3017 RMK AO2 SLP182 T01780133 53010 TSNO PNO
A tropical disturbance pushing toward the Bahamas, is expected to develop into a tropical depression or storm, and will likely target Florida and the Gulf Coast this weekend into next week.

Right now, the disturbance remains a broad area of low pressure pushing through the Dominican Republic and Haiti, headed toward the southeast Bahamas. Rainfall totals over 3 inches (with locally higher amounts) are expected in Hispañiola, particularly over elevated terrain.

10-Day Weather Forecast

Almanac

Astronomia

Aug. 25, 2016 Alba Tramonto
Ora attuale
Crepuscolo civile
Crepuscolo nautico
Crepuscolo astronomico
Luna
Estensione della luce visibile
Lunghezza del giorno
Tomorrow will be .
, % of the Moon is Illuminated

Gli estremi di oggi

State Highs State Lows

Community

WunderPhotos

Upload Photos

1,935,036 foto caricate!

WunderBlog® & News

Nearby

Qualità dell'aria

  Qualità dell'aria Indice AQ Inquinante
Not available.

Profondità neve

Stazione Profondità Altitudine

Attività sismica

Città  Distanza Mag. Data & Ora
Minimo Magnitudo Mostrato è 2.5.

Temperature delle acque costiere

Località Temperatura

Stations

Stazioni meteo nelle vicinanze

Ubicazione della stazione Temp. Raffreddamento del vento Punto di rugiada Umidità Vento Precip. Alt. Aggiornato Tipo
                   

Watches & Warnings

There are currently no watches in effect.